Time;durP1;ratioP1;P1;durP2;ratioP2;P2;SDS_P1;SDS_P2;PMS_P1;PMS_P2;Temp;Humidity;BMP_temperature;BMP_pressure;BME280_temperature;BME280_humidity;BME280_pressure;Samples;Min_cycle;Max_cycle;Signal;HPM_P1;HPM_P2
2021/06/21 00:00:38;;;;;;;;;7.00;6.33;;;;;26.26;54.38;97843.81;4931257;23;103638;-86
2021/06/21 00:03:19;;;;;;;;;7.67;7.67;;;;;26.29;54.57;97851.50;4772251;28;102368;-89
2021/06/21 00:06:00;;;;;;;;;5.67;5.67;;;;;26.21;54.70;97840.38;4980900;23;102016;-89
2021/06/21 00:08:40;;;;;;;;;7.00;6.33;;;;;26.29;54.84;97840.41;4859562;23;103111;-89
2021/06/21 00:11:21;;;;;;;;;6.00;6.00;;;;;26.23;54.76;97822.28;4821001;23;108586;-89
2021/06/21 00:14:02;;;;;;;;;5.33;5.00;;;;;26.22;54.96;97825.38;4929530;23;102253;-89
2021/06/21 00:16:44;;;;;;;;;7.00;6.50;;;;;26.21;54.60;97816.25;4897918;23;101849;-88
2021/06/21 00:19:30;;;;;;;;;6.00;6.00;;;;;26.10;54.70;97801.84;4802101;23;103344;-88
2021/06/21 00:22:15;;;;;;;;;7.33;7.33;;;;;26.26;54.38;97815.28;4873381;23;108478;-89
2021/06/21 00:25:00;;;;;;;;;5.33;5.33;;;;;26.23;54.60;97813.97;4800218;28;101864;-88
2021/06/21 00:27:53;;;;;;;;;7.00;6.00;;;;;26.23;54.70;97811.19;4862923;28;101627;-89
2021/06/21 00:30:38;;;;;;;;;6.67;5.67;;;;;26.22;54.61;97806.78;4941992;23;102919;-88
2021/06/21 00:33:22;;;;;;;;;7.33;7.00;;;;;26.26;54.56;97824.41;4775202;28;106326;-88
2021/06/21 00:36:08;;;;;;;;;5.33;5.33;;;;;26.23;54.37;97808.44;4811675;28;103891;-88
2021/06/21 00:38:54;;;;;;;;;7.00;7.00;;;;;26.21;54.30;97805.16;4761502;28;101907;-87
2021/06/21 00:41:45;;;;;;;;;7.33;7.00;;;;;26.26;54.51;97805.00;4807364;28;102450;-87
2021/06/21 00:44:29;;;;;;;;;6.33;6.33;;;;;26.25;54.48;97803.41;4759223;28;108664;-88
2021/06/21 00:47:14;;;;;;;;;9.67;8.67;;;;;26.20;54.50;97800.75;4828041;28;102065;-87
2021/06/21 00:49:58;;;;;;;;;6.67;6.67;;;;;26.24;54.40;97803.72;4757500;28;101827;-88
2021/06/21 00:52:43;;;;;;;;;7.00;7.00;;;;;26.16;54.62;97786.69;4800783;29;101959;-89
2021/06/21 00:55:31;;;;;;;;;6.33;5.67;;;;;26.23;54.42;97793.75;5121715;23;106303;-88
2021/06/21 00:58:16;;;;;;;;;7.00;7.00;;;;;26.14;54.30;97777.91;4808197;29;101267;-86
2021/06/21 01:01:09;;;;;;;;;10.00;8.00;;;;;26.21;54.22;97780.22;4858922;23;101704;-89
2021/06/21 01:03:55;;;;;;;;;11.00;7.67;;;;;26.23;54.23;97779.91;4730717;28;102566;-89
2021/06/21 01:06:40;;;;;;;;;8.33;6.33;;;;;26.18;54.25;97784.41;4188738;23;102249;-88
2021/06/21 01:12:18;;;;;;;;;7.00;7.00;;;;;26.11;54.21;97772.19;4944951;23;102787;-86
2021/06/21 01:15:07;;;;;;;;;7.33;7.00;;;;;26.14;54.19;97777.06;4759980;28;104044;-88
2021/06/21 01:18:20;;;;;;;;;6.67;6.00;;;;;26.20;54.31;97781.34;4927953;23;106232;-89
2021/06/21 01:21:15;;;;;;;;;5.67;5.67;;;;;26.12;54.47;97758.00;4770723;28;101904;-90
2021/06/21 01:24:17;;;;;;;;;8.00;6.33;;;;;26.12;54.56;97757.16;4769217;28;103311;-89
2021/06/21 01:27:34;;;;;;;;;9.00;8.33;;;;;26.17;54.36;97762.56;4758555;28;104023;-88
2021/06/21 01:30:25;;;;;;;;;8.00;8.00;;;;;26.16;54.46;97758.97;4812428;28;108019;-89
2021/06/21 01:33:10;;;;;;;;;8.33;7.33;;;;;26.14;54.43;97752.13;4788617;28;101803;-89
2021/06/21 01:35:59;;;;;;;;;7.67;7.00;;;;;26.10;54.40;97751.16;4850903;28;102057;-89
2021/06/21 01:39:06;;;;;;;;;8.00;8.00;;;;;26.01;54.54;97739.22;4851354;28;103609;-90
2021/06/21 01:41:52;;;;;;;;;8.00;7.00;;;;;26.09;54.68;97753.09;4945491;23;106243;-89
2021/06/21 01:45:03;;;;;;;;;7.00;7.00;;;;;26.09;54.57;97752.28;4793097;28;101776;-89
2021/06/21 01:47:49;;;;;;;;;6.67;6.67;;;;;26.17;54.24;97759.78;4868759;23;102725;-90
2021/06/21 01:50:31;;;;;;;;;6.33;6.33;;;;;26.12;54.25;97762.72;4892432;23;101536;-89
2021/06/21 01:59:14;;;;;;;;;6.33;6.33;;;;;26.16;54.31;97747.09;4996773;23;102921;-90
2021/06/21 02:02:24;;;;;;;;;9.67;7.33;;;;;26.15;54.44;97740.75;4901563;23;104122;-89
2021/06/21 02:05:10;;;;;;;;;9.00;8.00;;;;;26.14;54.61;97743.81;4795506;28;106586;-89
2021/06/21 02:07:57;;;;;;;;;9.67;8.67;;;;;26.10;54.49;97740.06;5010753;23;103234;-89
2021/06/21 02:10:53;;;;;;;;;6.67;6.67;;;;;26.15;54.52;97749.06;4856190;28;102829;-90
2021/06/21 02:13:38;;;;;;;;;7.00;7.00;;;;;26.13;54.62;97742.19;4784156;28;102185;-90
2021/06/21 02:16:26;;;;;;;;;5.00;4.67;;;;;26.12;54.55;97741.38;4860160;28;105276;-89
2021/06/21 02:22:20;;;;;;;;;8.67;7.00;;;;;26.05;54.40;97729.94;4829529;28;101351;-88
2021/06/21 02:25:07;;;;;;;;;7.00;7.00;;;;;26.14;54.51;97743.81;4769053;29;101629;-90
2021/06/21 02:30:51;;;;;;;;;8.67;8.00;;;;;26.13;54.51;97740.22;5057617;23;102687;-89
2021/06/21 02:33:36;;;;;;;;;7.33;7.33;;;;;26.00;54.39;97720.97;4834836;23;102499;-89
2021/06/21 02:36:24;;;;;;;;;7.33;7.33;;;;;26.06;54.40;97733.53;4890267;23;101839;-89
2021/06/21 02:39:23;;;;;;;;;7.67;7.33;;;;;26.07;54.26;97738.75;4949239;23;109797;-88
2021/06/21 02:42:09;;;;;;;;;7.00;7.00;;;;;26.12;53.82;97744.13;4817015;23;102558;-88
2021/06/21 02:44:56;;;;;;;;;6.33;6.33;;;;;26.01;54.30;97739.22;4920530;23;102903;-85
2021/06/21 02:48:07;;;;;;;;;9.00;8.00;;;;;26.04;54.11;97742.16;4752300;23;102679;-87
2021/06/21 02:54:24;;;;;;;;;7.67;6.33;;;;;25.97;53.94;97732.69;4817822;29;101969;-87
2021/06/21 02:57:53;;;;;;;;;8.00;8.00;;;;;26.11;53.97;97761.09;4889909;23;101794;-88
2021/06/21 03:06:39;;;;;;;;;8.00;7.33;;;;;26.06;53.64;97750.16;4768483;29;105027;-88
2021/06/21 03:12:22;;;;;;;;;6.33;6.33;;;;;26.04;53.62;97749.66;4702525;23;102121;-87
2021/06/21 03:17:41;;;;;;;;;5.33;5.00;;;;;25.97;53.29;97729.94;4942409;23;104109;-88
2021/06/21 03:20:30;;;;;;;;;6.33;6.33;;;;;25.96;53.34;97736.59;5037646;23;102851;-88
2021/06/21 03:23:11;;;;;;;;;6.00;6.00;;;;;26.02;53.44;97743.63;4793993;28;102709;-88
2021/06/21 03:25:53;;;;;;;;;8.00;6.00;;;;;25.99;53.33;97747.03;4816884;28;108201;-87
2021/06/21 03:28:33;;;;;;;;;7.00;7.00;;;;;25.97;53.23;97739.06;4776768;28;102195;-88
2021/06/21 03:31:15;;;;;;;;;7.00;6.00;;;;;25.98;53.12;97739.88;4819863;28;101812;-88
2021/06/21 03:33:55;;;;;;;;;6.00;6.00;;;;;25.97;53.07;97738.25;4827019;28;101518;-89
2021/06/21 03:36:36;;;;;;;;;8.33;6.67;;;;;26.01;53.06;97750.31;4822570;28;103741;-89
2021/06/21 03:39:17;;;;;;;;;7.67;7.00;;;;;25.98;53.05;97746.22;4839186;28;101969;-88
2021/06/21 03:41:58;;;;;;;;;7.67;7.00;;;;;25.93;53.40;97738.06;4863879;23;102273;-88
2021/06/21 03:44:46;;;;;;;;;6.33;6.33;;;;;25.97;52.71;97744.59;4979881;23;102178;-88
2021/06/21 03:47:27;;;;;;;;;9.00;7.00;;;;;25.81;52.73;97718.47;4848575;28;104766;-87
2021/06/21 03:50:08;;;;;;;;;7.33;6.33;;;;;25.87;53.15;97733.00;4857067;28;101448;-88
2021/06/21 03:52:49;;;;;;;;;6.00;6.00;;;;;25.85;53.23;97725.00;4862837;28;102139;-87
2021/06/21 03:55:30;;;;;;;;;6.00;6.00;;;;;25.87;52.73;97733.00;4843049;28;101793;-89
2021/06/21 04:00:52;;;;;;;;;5.67;5.67;;;;;25.80;52.51;97729.88;5159123;23;103462;-89
2021/06/21 04:03:33;;;;;;;;;6.67;6.67;;;;;25.90;52.23;97748.97;4854450;28;101985;-89
2021/06/21 04:06:14;;;;;;;;;7.00;6.67;;;;;25.87;52.16;97744.88;4975397;23;102655;-88
2021/06/21 04:08:55;;;;;;;;;7.67;6.00;;;;;25.94;52.15;97749.94;4988130;23;108076;-86
2021/06/21 04:11:45;;;;;;;;;6.00;6.00;;;;;25.87;51.84;97738.53;4532176;23;104308;-89
2021/06/21 04:14:26;;;;;;;;;6.33;6.33;;;;;25.84;51.83;97733.63;4819470;28;101266;-89
2021/06/21 04:17:07;;;;;;;;;7.00;7.00;;;;;25.88;51.82;97740.16;4823502;28;102666;-89
2021/06/21 04:19:48;;;;;;;;;7.33;6.67;;;;;25.84;51.54;97740.00;4822046;28;102165;-89
2021/06/21 04:22:29;;;;;;;;;8.00;8.00;;;;;25.76;51.23;97726.91;4826683;28;102521;-89
2021/06/21 04:25:12;;;;;;;;;5.33;5.33;;;;;25.85;51.43;97744.38;4832553;29;109579;-89
2021/06/21 04:27:53;;;;;;;;;7.67;6.67;;;;;25.84;51.14;97742.78;4821517;28;102129;-89
2021/06/21 04:30:34;;;;;;;;;7.33;6.00;;;;;25.84;51.12;97747.50;4843611;23;108139;-89
2021/06/21 04:33:03;;;;;;;;;8.67;5.33;;;;;25.74;51.18;97743.88;4834514;28;101802;-90
2021/06/21 04:38:26;;;;;;;;;6.33;6.33;;;;;25.86;50.74;97764.59;5136551;23;102954;-89
2021/06/21 04:41:07;;;;;;;;;6.00;6.00;;;;;25.80;50.70;97757.59;4891146;23;108374;-89
2021/06/21 04:43:47;;;;;;;;;7.00;7.00;;;;;25.87;50.60;97772.59;5235916;23;103078;-89
2021/06/21 04:46:25;;;;;;;;;6.67;6.67;;;;;25.82;50.17;97763.59;5510103;23;102649;-86
2021/06/21 04:49:11;;;;;;;;;8.67;7.00;;;;;25.90;50.46;97771.94;4956591;23;102450;-89
2021/06/21 04:54:34;;;;;;;;;7.00;6.33;;;;;25.84;50.63;97753.84;4571955;23;102687;-88
2021/06/21 04:57:03;;;;;;;;;5.67;5.67;;;;;25.90;50.48;97760.84;4932653;23;103111;-89
2021/06/21 04:59:44;;;;;;;;;6.67;6.67;;;;;25.93;50.45;97764.97;4904113;23;102462;-88
2021/06/21 05:02:26;;;;;;;;;6.00;5.67;;;;;25.88;50.32;97754.03;5026773;23;108069;-87
2021/06/21 05:05:08;;;;;;;;;5.67;5.33;;;;;25.86;50.50;97747.97;4898961;23;103937;-89
2021/06/21 05:07:38;;;;;;;;;6.00;6.00;;;;;25.89;50.36;97752.88;4958648;23;102585;-88
2021/06/21 05:10:19;;;;;;;;;7.00;5.33;;;;;25.89;50.43;97750.13;4851407;28;102474;-89
2021/06/21 05:13:00;;;;;;;;;8.33;8.00;;;;;25.91;50.22;97764.44;5065302;23;108814;-89
2021/06/21 05:15:41;;;;;;;;;7.33;5.00;;;;;25.85;50.50;97751.91;5163429;23;102897;-89
2021/06/21 05:21:27;;;;;;;;;6.00;5.00;;;;;25.97;50.37;97775.06;4896783;23;384621;31
2021/06/21 05:24:09;;;;;;;;;6.00;6.00;;;;;25.91;50.57;97761.69;5124109;23;108246;-90
2021/06/21 05:26:45;;;;;;;;;6.67;6.00;;;;;25.84;50.58;97755.81;4896830;23;102926;-90
2021/06/21 05:29:26;;;;;;;;;7.67;7.67;;;;;25.95;50.51;97768.22;5117104;23;101627;-88
2021/06/21 05:34:50;;;;;;;;;7.33;6.33;;;;;26.00;50.53;97776.38;4870945;23;102219;-89
2021/06/21 05:37:31;;;;;;;;;5.00;4.33;;;;;25.95;50.20;97773.75;4936807;23;102646;-90
2021/06/21 05:40:13;;;;;;;;;5.33;5.33;;;;;25.95;50.62;97776.53;5254151;23;103574;-90
2021/06/21 05:48:54;;;;;;;;;6.33;6.33;;;;;25.99;50.64;97769.19;5431553;23;103363;-90
2021/06/21 05:54:31;;;;;;;;;7.67;6.67;;;;;25.95;50.69;97769.03;4827629;23;102017;-91
2021/06/21 05:57:12;;;;;;;;;7.00;6.00;;;;;26.03;50.31;97784.84;5121841;23;104023;-90
2021/06/21 06:02:35;;;;;;;;;11.33;9.00;;;;;26.00;50.59;97793.81;4687246;23;103083;-90
2021/06/21 06:05:04;;;;;;;;;9.00;8.00;;;;;25.98;50.59;97798.84;5626518;23;102905;-91
2021/06/21 06:07:46;;;;;;;;;8.00;6.33;;;;;25.93;50.69;97787.13;5007457;23;108293;-91
2021/06/21 06:10:28;;;;;;;;;8.67;8.00;;;;;26.05;50.76;97790.09;4815967;28;104259;-90
2021/06/21 06:13:09;;;;;;;;;10.33;9.33;;;;;26.00;50.86;97781.91;4747681;29;102332;-90
2021/06/21 06:15:51;;;;;;;;;7.67;7.33;;;;;25.97;50.60;97775.06;4804602;28;102159;-89
2021/06/21 06:18:32;;;;;;;;;10.00;8.33;;;;;26.01;50.73;97780.78;4785229;29;108229;-90
2021/06/21 06:21:16;;;;;;;;;13.67;11.67;;;;;25.91;50.88;97768.03;4800857;28;102241;-92
2021/06/21 06:38:25;;;;;;;;;13.50;11.00;;;;;26.09;51.33;97791.06;4938743;23;103659;31
2021/06/21 06:47:33;;;;;;;;;10.67;10.67;;;;;26.06;51.42;97780.63;5242814;23;103028;-90
2021/06/21 06:59:03;;;;;;;;;10.33;9.00;;;;;26.07;51.35;97765.66;4954271;23;101797;-89
2021/06/21 07:01:45;;;;;;;;;12.67;11.33;;;;;26.10;51.58;97767.78;4851436;28;102946;-89
2021/06/21 07:04:27;;;;;;;;;11.33;9.33;;;;;26.08;51.55;97770.03;4855306;28;108410;-89
2021/06/21 07:07:08;;;;;;;;;11.00;10.33;;;;;26.15;51.68;97784.25;4786785;28;101691;-89
2021/06/21 07:09:49;;;;;;;;;11.67;10.00;;;;;26.08;51.64;97772.81;4818767;28;102004;-90
2021/06/21 07:12:31;;;;;;;;;10.00;10.00;;;;;26.14;51.63;97771.53;4856613;28;102644;-90
2021/06/21 07:15:15;;;;;;;;;10.33;9.33;;;;;26.02;51.62;97755.53;4800126;28;108402;-89
2021/06/21 07:17:57;;;;;;;;;10.33;9.67;;;;;26.14;51.60;97766.00;4825027;28;102026;-90
2021/06/21 07:20:33;;;;;;;;;10.67;10.33;;;;;26.11;51.65;97758.34;5457382;23;103195;-89
2021/06/21 07:23:40;;;;;;;;;12.33;11.33;;;;;26.17;51.59;97771.69;5468834;23;104066;-91
2021/06/21 07:26:22;;;;;;;;;13.00;10.67;;;;;26.17;51.87;97766.16;5520202;23;106499;-89
2021/06/21 07:29:04;;;;;;;;;12.00;11.33;;;;;26.05;51.90;97743.81;5374132;23;102270;-91
2021/06/21 07:40:22;;;;;;;;;9.33;9.00;;;;;26.13;51.48;97769.88;5599178;23;103031;-90
2021/06/21 07:43:03;;;;;;;;;11.67;11.00;;;;;26.13;51.64;97767.13;5083006;23;102233;-91
2021/06/21 07:45:45;;;;;;;;;12.33;11.33;;;;;26.17;51.71;97768.09;4778654;28;101718;-90
2021/06/21 07:51:16;;;;;;;;;12.00;11.00;;;;;26.26;51.58;97779.25;4813510;23;104347;-89
2021/06/21 07:53:58;;;;;;;;;8.67;8.00;;;;;26.26;51.78;97779.25;5170358;23;102638;31
2021/06/21 07:56:39;;;;;;;;;8.00;8.00;;;;;26.22;51.64;97768.00;4872548;23;103350;-91
2021/06/21 07:59:29;;;;;;;;;11.67;11.67;;;;;26.25;51.80;97767.38;4564772;23;103273;-90
2021/06/21 08:05:00;;;;;;;;;12.67;11.67;;;;;26.19;51.85;97761.13;4604501;23;102879;-91
2021/06/21 08:07:51;;;;;;;;;11.00;10.00;;;;;26.23;51.64;97763.25;5551095;23;102633;-91
2021/06/21 08:22:22;;;;;;;;;11.33;9.67;;;;;26.30;51.82;97772.72;5432417;23;103680;-92
2021/06/21 08:30:41;;;;;;;;;11.67;10.33;;;;;26.27;51.57;97759.53;5283891;23;102265;-91
2021/06/21 08:39:06;;;;;;;;;10.00;8.67;;;;;26.28;51.82;97757.56;4990631;23;101455;-91
2021/06/21 08:41:54;;;;;;;;;14.00;10.00;;;;;26.27;51.69;97742.06;5014165;23;104858;-90
2021/06/21 08:44:37;;;;;;;;;9.67;9.00;;;;;26.29;51.46;97754.50;5081883;23;103207;-90
2021/06/21 08:47:20;;;;;;;;;14.00;11.33;;;;;26.29;51.63;97746.16;5436814;23;102669;-91
2021/06/21 08:50:03;;;;;;;;;11.33;11.33;;;;;26.34;51.44;97756.28;4818934;28;101712;-91
2021/06/21 08:52:45;;;;;;;;;11.00;10.00;;;;;26.38;51.77;97754.50;4765061;28;102809;-91
2021/06/21 08:55:26;;;;;;;;;13.00;11.00;;;;;26.36;51.73;97765.91;4769448;28;103977;-90
2021/06/21 08:58:07;;;;;;;;;11.00;10.00;;;;;26.37;51.63;97753.69;4770691;28;101952;-90
2021/06/21 09:00:50;;;;;;;;;13.00;11.33;;;;;26.31;51.52;97732.78;4804567;28;101884;-91
2021/06/21 09:03:33;;;;;;;;;10.67;10.00;;;;;26.44;51.71;97759.53;4802090;28;101732;-91
2021/06/21 09:17:46;;;;;;;;;10.00;9.33;;;;;26.40;51.61;97744.69;4999635;23;103165;-92
2021/06/21 09:29:13;;;;;;;;;10.33;9.00;;;;;26.43;51.76;97730.19;5374513;23;103237;-90
2021/06/21 09:34:46;;;;;;;;;12.33;11.00;;;;;26.40;51.71;97719.75;5247817;23;102690;-91
2021/06/21 09:40:28;;;;;;;;;10.00;8.33;;;;;26.48;51.78;97721.72;5154854;23;103198;-91
2021/06/21 09:43:26;;;;;;;;;14.33;13.67;;;;;26.40;51.62;97707.84;4706078;28;102515;-91
2021/06/21 09:46:11;;;;;;;;;12.00;11.33;;;;;26.49;51.71;97725.31;4809710;28;108784;-91
2021/06/21 09:48:53;;;;;;;;;9.67;9.00;;;;;26.60;51.88;97737.72;4806553;28;101852;-90
2021/06/21 09:51:38;;;;;;;;;11.67;11.00;;;;;26.60;51.31;97735.75;4793449;28;104215;-90
2021/06/21 09:54:21;;;;;;;;;15.33;13.33;;;;;26.56;51.38;97728.41;4789954;28;101916;-91
2021/06/21 10:02:25;;;;;;;;;9.00;9.00;;;;;26.54;51.43;97714.88;4957761;23;103084;-88
2021/06/21 10:05:18;;;;;;;;;12.33;12.33;;;;;26.58;51.58;97710.28;5555988;23;103137;-90
2021/06/21 10:27:57;;;;;;;;;10.00;10.00;;;;;26.61;51.32;97687.44;4826897;23;105042;-89
2021/06/21 10:33:13;;;;;;;;;11.67;11.00;;;;;26.65;51.26;97695.97;5097823;23;102607;-89
2021/06/21 10:38:42;;;;;;;;;10.67;9.67;;;;;26.74;51.04;97705.09;5461508;23;105560;-89
2021/06/21 10:44:36;;;;;;;;;10.33;10.33;;;;;26.79;51.39;97706.88;5215191;23;102622;-90
2021/06/21 10:50:05;;;;;;;;;12.33;11.00;;;;;26.73;51.25;97683.22;5334662;23;102868;-88
2021/06/21 11:23:52;;;;;;;;;11.67;11.67;;;;;26.85;51.06;97650.91;5061863;23;101780;-89
2021/06/21 11:27:06;;;;;;;;;12.33;12.33;;;;;26.89;51.30;97653.84;4750771;28;102546;-89
2021/06/21 11:29:52;;;;;;;;;10.00;9.00;;;;;26.80;51.07;97633.59;4713305;29;102486;-89
2021/06/21 11:32:34;;;;;;;;;11.33;9.67;;;;;26.89;51.14;97645.50;4757065;29;108792;-89
2021/06/21 11:35:20;;;;;;;;;12.33;9.33;;;;;26.92;51.25;97637.38;4665726;29;101358;-89
2021/06/21 11:46:53;;;;;;;;;9.33;9.00;;;;;26.87;51.14;97634.75;5276140;23;102960;-90
2021/06/21 12:02:10;;;;;;;;;8.00;8.00;;;;;26.91;50.90;97618.25;5731412;23;103070;31
2021/06/21 12:16:39;;;;;;;;;9.67;9.00;;;;;26.90;51.36;97606.34;4707434;29;103082;-89
2021/06/21 12:19:28;;;;;;;;;10.33;9.33;;;;;26.94;51.39;97604.53;4670546;29;103773;-91
2021/06/21 12:22:12;;;;;;;;;11.00;10.00;;;;;27.02;51.09;97600.09;4647426;29;101415;-90
2021/06/21 12:24:53;;;;;;;;;10.67;10.33;;;;;27.02;51.06;97600.09;4675726;29;102833;-91
2021/06/21 12:27:40;;;;;;;;;10.33;10.00;;;;;27.04;50.80;97604.19;4694743;29;101411;-90
2021/06/21 12:30:37;;;;;;;;;8.33;8.33;;;;;26.96;50.71;97585.59;4646776;29;108064;-91
2021/06/21 12:33:22;;;;;;;;;6.00;6.00;;;;;26.97;51.07;97583.66;4724453;29;101905;-91
2021/06/21 12:39:02;;;;;;;;;9.67;8.00;;;;;27.00;50.83;97583.78;4628989;23;102739;-90
2021/06/21 12:47:32;;;;;;;;;9.00;9.00;;;;;27.00;51.08;97567.16;5296007;23;103195;-91
2021/06/21 13:05:19;;;;;;;;;8.67;8.67;;;;;27.17;50.59;97582.91;5077724;23;103445;-90
2021/06/21 13:08:01;;;;;;;;;9.67;9.00;;;;;27.11;50.54;97562.03;5359884;23;102658;-89
2021/06/21 13:10:46;;;;;;;;;10.33;10.00;;;;;27.21;50.92;97577.50;4938545;23;102233;-88
2021/06/21 13:28:43;;;;;;;;;8.67;8.67;;;;;27.24;51.04;97574.06;5107012;23;103205;-91
2021/06/21 13:31:33;;;;;;;;;10.33;9.00;;;;;27.24;50.75;97557.41;5451389;23;102792;-89
2021/06/21 13:55:42;;;;;;;;;10.00;9.00;;;;;27.31;50.67;97550.19;4293010;26;101958;-89
2021/06/21 13:59:00;;;;;;;;;9.00;8.00;;;;;27.41;50.20;97566.47;4637404;29;104492;-89
2021/06/21 14:01:56;;;;;;;;;10.00;9.33;;;;;27.35;50.46;97551.13;4621289;29;103446;-90
2021/06/21 14:04:46;;;;;;;;;8.67;8.33;;;;;27.44;49.98;97568.56;4624551;29;104448;-90
2021/06/21 14:22:53;;;;;;;;;9.00;8.33;;;;;27.55;50.01;97554.31;5537347;23;102741;-91
2021/06/21 14:53:00;;;;;;;;;9.67;8.33;;;;;27.83;49.41;97566.50;4598963;28;107909;-90
2021/06/21 14:56:07;;;;;;;;;7.33;7.33;;;;;27.91;49.27;97571.22;4614631;28;103273;-91
2021/06/21 14:59:03;;;;;;;;;9.00;8.33;;;;;28.03;49.18;97576.00;4586402;28;102356;-91
2021/06/21 15:01:58;;;;;;;;;6.67;6.00;;;;;28.07;49.23;97582.53;4586183;29;102119;-90
2021/06/21 15:05:16;;;;;;;;;8.00;7.33;;;;;28.17;49.48;97587.72;4634549;29;104272;-90
2021/06/21 15:30:02;;;;;;;;;11.00;10.67;;;;;28.50;48.25;97574.66;4545238;29;108200;-90
2021/06/21 15:39:07;;;;;;;;;8.00;7.67;;;;;28.62;48.38;97598.91;5492186;23;103715;-90
2021/06/21 15:42:22;;;;;;;;;12.67;10.67;;;;;28.56;48.21;97583.56;5510822;23;106570;-91
2021/06/21 16:58:48;;;;;;;;;6.33;6.00;;;;;28.29;48.09;97627.50;5818743;22;102571;-89
2021/06/21 17:01:31;;;;;;;;;6.33;6.00;;;;;28.31;48.30;97622.44;5955158;22;104058;-89
2021/06/21 17:05:02;;;;;;;;;;;;;;;;;;;;;
2021/06/21 17:57:51;;;;;;;;;8.00;7.67;;;;;28.18;48.40;97668.00;5022764;27;102259;-81
2021/06/21 18:00:20;;;;;;;;;8.67;8.00;;;;;28.16;48.73;97663.91;4988996;27;102156;-83
2021/06/21 18:02:50;;;;;;;;;7.33;6.00;;;;;28.19;48.36;97674.38;4970240;28;105290;-82
2021/06/21 18:05:20;;;;;;;;;6.00;6.00;;;;;28.18;48.36;97679.13;4966746;27;103781;-83
2021/06/21 18:07:48;;;;;;;;;6.33;6.33;;;;;28.07;48.48;97666.72;5006047;27;102245;-82
2021/06/21 18:10:16;;;;;;;;;6.00;5.00;;;;;28.15;48.23;97671.44;4995641;27;104626;-82
2021/06/21 18:12:44;;;;;;;;;6.33;6.33;;;;;28.07;48.17;97666.72;4996075;27;103109;-82
2021/06/21 18:15:14;;;;;;;;;9.00;8.00;;;;;28.03;48.58;97663.00;4974924;28;102183;-81
2021/06/21 18:17:42;;;;;;;;;8.67;8.00;;;;;28.03;48.78;97674.09;4991424;27;102601;-82
2021/06/21 18:20:10;;;;;;;;;7.33;7.33;;;;;28.01;48.81;97673.63;4981118;27;102239;-82
2021/06/21 18:22:37;;;;;;;;;7.33;6.67;;;;;28.07;48.73;97683.41;4987667;27;104161;-82
2021/06/21 18:25:05;;;;;;;;;5.00;5.00;;;;;28.06;48.53;97695.66;4991943;27;102358;-82
2021/06/21 18:27:33;;;;;;;;;7.33;7.33;;;;;28.03;48.38;97698.31;4984911;27;102493;-82
2021/06/21 18:30:00;;;;;;;;;6.67;6.00;;;;;28.03;48.48;97699.13;4992021;27;102831;-81
2021/06/21 18:32:29;;;;;;;;;6.67;6.67;;;;;27.96;48.62;97690.53;4989958;27;103040;-82
2021/06/21 18:35:24;;;;;;;;;6.33;6.33;;;;;28.05;48.69;97715.47;4927142;27;102709;-82
2021/06/21 18:37:52;;;;;;;;;8.67;6.00;;;;;28.01;48.67;97726.44;4996264;28;102249;-80
2021/06/21 18:40:19;;;;;;;;;7.67;6.67;;;;;28.04;48.82;97723.00;4979179;27;102144;-82
2021/06/21 18:42:46;;;;;;;;;5.67;5.67;;;;;28.02;48.56;97725.28;4996037;27;103270;-82
2021/06/21 18:45:14;;;;;;;;;8.00;8.00;;;;;28.04;49.15;97717.44;4981115;27;105283;-82
2021/06/21 18:47:43;;;;;;;;;5.67;5.67;;;;;28.00;49.09;97693.44;4974327;28;102180;-82
2021/06/21 18:50:11;;;;;;;;;7.33;6.33;;;;;27.94;48.71;97687.25;4977354;28;102206;-82
2021/06/21 18:52:38;;;;;;;;;6.67;6.00;;;;;27.93;48.74;97693.94;4975024;28;104147;-82
2021/06/21 18:55:13;;;;;;;;;7.00;6.00;;;;;28.00;48.85;97713.72;4976099;28;102599;-82
2021/06/21 18:57:48;;;;;;;;;6.00;6.00;;;;;27.94;49.08;97690.03;4966038;28;103248;-82
2021/06/21 19:00:20;;;;;;;;;7.00;6.33;;;;;27.95;48.85;97698.03;4965184;28;102332;-83
2021/06/21 19:02:47;;;;;;;;;7.33;7.33;;;;;27.93;49.17;97702.28;4953458;28;104386;-82
2021/06/21 19:05:15;;;;;;;;;8.67;8.67;;;;;27.90;48.89;97698.22;4967435;28;102409;-84
2021/06/21 19:07:43;;;;;;;;;7.00;7.00;;;;;27.95;48.84;97702.78;4954919;28;102236;-82
2021/06/21 19:10:16;;;;;;;;;6.00;6.00;;;;;27.86;49.08;97693.69;4981517;28;102346;-81
2021/06/21 19:12:43;;;;;;;;;5.33;5.33;;;;;27.91;48.80;97705.41;4941235;28;109267;-82
2021/06/21 19:15:15;;;;;;;;;7.67;7.00;;;;;27.92;49.28;97704.25;4947763;28;102129;-81
2021/06/21 19:17:43;;;;;;;;;7.67;7.00;;;;;27.91;49.06;97708.19;4949769;28;103045;-82
2021/06/21 19:20:11;;;;;;;;;7.00;6.33;;;;;27.86;49.07;97685.34;4954536;28;102243;-82
2021/06/21 19:22:40;;;;;;;;;6.00;6.00;;;;;27.84;49.30;97684.84;4957237;28;103336;-82
2021/06/21 19:25:09;;;;;;;;;5.33;4.67;;;;;27.90;48.81;97695.44;4980194;28;102627;-82
2021/06/21 19:27:37;;;;;;;;;6.00;6.00;;;;;27.78;49.25;97687.00;4963747;28;102247;-82
2021/06/21 19:30:07;;;;;;;;;7.00;7.00;;;;;27.88;49.43;97713.59;4954361;28;102524;-82
2021/06/21 19:32:34;;;;;;;;;6.00;6.00;;;;;27.87;49.18;97723.09;4953574;27;103810;-82
2021/06/21 19:35:02;;;;;;;;;7.00;7.00;;;;;27.88;48.92;97719.16;4963507;28;102554;-82
2021/06/21 19:37:29;;;;;;;;;5.00;5.00;;;;;27.80;49.40;97695.00;4965884;28;102500;-82
2021/06/21 19:39:56;;;;;;;;;7.00;6.67;;;;;27.76;49.33;97682.94;4948279;28;102430;-81
2021/06/21 19:42:24;;;;;;;;;7.00;7.00;;;;;27.83;49.55;97706.25;4949465;28;103036;-82
2021/06/21 19:44:55;;;;;;;;;8.67;6.00;;;;;27.69;49.35;97693.78;4927424;28;102966;-82
2021/06/21 19:47:22;;;;;;;;;7.00;7.00;;;;;27.76;49.47;97713.50;4948734;28;103279;-82
2021/06/21 19:49:49;;;;;;;;;9.67;9.33;;;;;27.71;49.44;97697.00;4961841;28;102437;-82
2021/06/21 19:52:17;;;;;;;;;9.00;8.00;;;;;27.78;49.49;97706.44;4964034;28;103077;-83
2021/06/21 19:54:44;;;;;;;;;7.00;6.00;;;;;27.77;49.66;97701.25;4991203;28;102334;-83
2021/06/21 19:57:12;;;;;;;;;9.00;7.67;;;;;27.73;49.19;97695.53;4958374;28;102639;-83
2021/06/21 19:59:40;;;;;;;;;8.33;8.00;;;;;27.75;49.46;97693.22;4970423;28;102300;-82
2021/06/21 20:02:08;;;;;;;;;7.00;7.00;;;;;27.76;49.55;97691.28;4960716;28;104051;-83
2021/06/21 20:04:36;;;;;;;;;7.33;6.67;;;;;27.78;49.21;97694.53;4951237;28;102870;-83
2021/06/21 20:07:04;;;;;;;;;6.67;6.67;;;;;27.77;49.52;97695.69;4964474;27;102405;-82
2021/06/21 20:09:33;;;;;;;;;7.00;7.00;;;;;27.73;49.44;97689.16;4974196;28;102239;-83
2021/06/21 20:12:01;;;;;;;;;9.67;9.67;;;;;27.73;49.48;97689.16;4961505;28;103097;-82
2021/06/21 20:14:29;;;;;;;;;6.67;6.67;;;;;27.67;49.62;97679.38;4984509;28;103696;-82
2021/06/21 20:16:56;;;;;;;;;7.00;7.00;;;;;27.74;49.18;97693.59;4953916;27;102536;-82
2021/06/21 20:19:24;;;;;;;;;9.33;7.00;;;;;27.73;49.18;97700.28;4954326;28;102263;-81
2021/06/21 20:21:51;;;;;;;;;8.00;8.00;;;;;27.69;49.11;97693.78;4938562;28;105289;-81
2021/06/21 20:24:19;;;;;;;;;6.67;6.67;;;;;27.67;49.56;97691.31;4970844;28;102740;-83
2021/06/21 20:26:47;;;;;;;;;7.00;7.00;;;;;27.72;49.80;97709.75;4937549;28;102143;-83
2021/06/21 20:29:15;;;;;;;;;8.33;7.67;;;;;27.71;49.38;97708.94;4957756;28;103556;-81
2021/06/21 20:31:45;;;;;;;;;6.33;6.33;;;;;27.68;49.25;97708.81;4945011;28;109158;-82
2021/06/21 20:34:17;;;;;;;;;6.00;6.00;;;;;27.66;49.64;97705.53;4966324;27;102488;-82
2021/06/21 20:36:57;;;;;;;;;6.67;6.67;;;;;27.69;49.64;97721.56;4967748;28;102531;-82
2021/06/21 20:39:25;;;;;;;;;6.67;6.67;;;;;27.68;49.43;97717.13;4898842;28;103673;-82
2021/06/21 20:41:53;;;;;;;;;7.00;7.00;;;;;27.61;49.34;97689.03;4956379;28;102560;-82
2021/06/21 20:44:20;;;;;;;;;7.67;6.67;;;;;27.62;49.43;97701.78;4946098;28;102489;-81
2021/06/21 20:46:48;;;;;;;;;7.33;6.67;;;;;27.65;49.53;97715.81;4947151;28;102596;-83
2021/06/21 20:49:15;;;;;;;;;7.00;7.00;;;;;27.66;49.40;97706.34;4961140;28;102209;-82
2021/06/21 20:51:43;;;;;;;;;7.00;7.00;;;;;27.60;49.59;97691.03;4932108;28;108258;-82
2021/06/21 20:54:10;;;;;;;;;7.00;6.00;;;;;27.63;49.27;97700.66;4967498;28;102764;-82